Time;durP1;ratioP1;P1;durP2;ratioP2;P2;SDS_P1;SDS_P2;PMS_P1;PMS_P2;Temp;Humidity;BMP_temperature;BMP_pressure;BME280_temperature;BME280_humidity;BME280_pressure;Samples;Min_cycle;Max_cycle;Signal;HPM_P1;HPM_P2
2021/12/11 00:00:59;;;;;;;16.90;10.40;;;;;;;3.75;79.08;94350.72;4967355;28;20031;-63
2021/12/11 00:03:26;;;;;;;17.58;10.55;;;;;;;3.75;78.57;94350.72;4966366;28;20047;-62
2021/12/11 00:05:59;;;;;;;18.00;10.88;;;;;;;3.65;78.62;94343.50;4967071;28;20043;-62
2021/12/11 00:08:28;;;;;;;17.15;11.85;;;;;;;3.60;79.58;94348.00;4970972;28;20038;-62
2021/12/11 00:11:00;;;;;;;15.15;10.30;;;;;;;3.62;79.47;94345.38;5008039;28;20087;-61
2021/12/11 00:13:29;;;;;;;16.10;10.07;;;;;;;3.76;78.77;94347.31;5008917;28;20111;-61
2021/12/11 00:15:56;;;;;;;14.55;9.13;;;;;;;3.70;77.77;94357.78;5008143;28;20485;-64
2021/12/11 00:18:26;;;;;;;15.05;9.60;;;;;;;3.41;78.26;94327.66;5008519;28;20509;-63
2021/12/11 00:21:00;;;;;;;12.32;7.68;;;;;;;3.80;77.71;94395.50;5007930;28;20113;-64
2021/12/11 00:23:51;;;;;;;13.20;8.57;;;;;;;3.80;77.71;94404.91;5008063;28;20500;-61
2021/12/11 00:26:40;;;;;;;12.45;7.82;;;;;;;3.84;76.67;94389.38;5008636;28;20095;-61
2021/12/11 00:29:09;;;;;;;10.77;7.85;;;;;;;3.59;77.24;94384.59;5008457;28;20401;-61
2021/12/11 00:31:36;;;;;;;16.08;10.38;;;;;;;3.34;79.01;94389.97;5008098;28;20038;-61
2021/12/11 00:34:03;;;;;;;13.18;8.45;;;;;;;3.32;80.31;94399.41;5007966;28;20021;-65
2021/12/11 00:36:32;;;;;;;14.98;9.45;;;;;;;3.24;80.13;94370.91;5008438;28;20125;-62
2021/12/11 00:39:18;;;;;;;14.10;9.45;;;;;;;3.33;79.32;94339.91;5008267;28;20050;-62
2021/12/11 00:41:50;;;;;;;14.32;8.63;;;;;;;3.60;78.67;94382.88;5008185;28;20030;-62
2021/12/11 00:44:15;;;;;;;11.82;7.63;;;;;;;3.75;77.18;94373.69;5007622;28;20516;-60
2021/12/11 00:46:41;;;;;;;11.35;7.10;;;;;;;3.61;77.47;94356.50;5008004;28;20113;-61
2021/12/11 00:49:13;;;;;;;12.50;8.05;;;;;;;3.58;78.11;94372.75;5008353;28;20412;-61
2021/12/11 00:51:39;;;;;;;12.45;8.45;;;;;;;3.64;78.02;94377.56;5008462;28;20014;-63
2021/12/11 00:54:05;;;;;;;13.27;7.82;;;;;;;3.66;78.00;94378.31;5007874;28;20052;-65
2021/12/11 00:56:38;;;;;;;12.40;6.88;;;;;;;3.78;77.66;94365.91;5008327;28;20038;-62
2021/12/11 00:59:08;;;;;;;10.15;6.78;;;;;;;3.87;75.80;94360.38;5007806;28;20030;-62
2021/12/11 01:01:51;;;;;;;12.75;7.05;;;;;;;3.65;75.81;94348.59;5008389;28;20054;-65
2021/12/11 01:04:24;;;;;;;9.88;7.07;;;;;;;3.77;76.43;94367.63;5006535;28;20038;-63
2021/12/11 01:06:53;;;;;;;11.82;6.75;;;;;;;3.75;76.76;94371.94;5007836;28;20168;-65
2021/12/11 01:09:23;;;;;;;11.93;7.03;;;;;;;3.67;76.41;94366.38;5007285;28;20034;-64
2021/12/11 01:12:05;;;;;;;10.90;7.22;;;;;;;3.68;76.24;94360.41;5007630;28;20081;-61
2021/12/11 01:15:07;;;;;;;8.48;5.97;;;;;;;3.73;75.74;94360.19;5007612;28;20030;-63
2021/12/11 01:17:47;;;;;;;9.75;5.55;;;;;;;3.78;75.34;94336.09;4966141;28;20510;-63
2021/12/11 01:20:24;;;;;;;10.57;5.68;;;;;;;3.97;74.23;94355.66;4966411;28;20038;-62
2021/12/11 01:22:52;;;;;;;9.35;5.28;;;;;;;4.00;73.92;94360.59;4965704;28;20031;-64
2021/12/11 01:25:27;;;;;;;7.95;5.50;;;;;;;3.73;74.25;94330.41;4965917;28;20035;-64
2021/12/11 01:27:59;;;;;;;8.52;5.30;;;;;;;3.87;74.12;94352.72;4966148;28;20039;-64
2021/12/11 01:30:29;;;;;;;8.23;5.32;;;;;;;3.84;73.76;94345.22;4967842;28;20049;-63
2021/12/11 01:32:55;;;;;;;7.63;4.63;;;;;;;3.93;73.17;94359.25;4970239;28;20255;-62
2021/12/11 01:35:21;;;;;;;7.68;4.70;;;;;;;3.87;72.28;94329.75;4969418;28;20035;-61
2021/12/11 01:37:50;;;;;;;6.30;3.70;;;;;;;3.99;71.52;94359.78;4969547;28;20055;-61
2021/12/11 01:40:20;;;;;;;5.38;3.53;;;;;;;3.90;72.03;94356.84;4969566;28;20457;-63
2021/12/11 01:42:46;;;;;;;5.97;3.95;;;;;;;3.85;71.82;94355.34;4969344;28;20037;-63
2021/12/11 01:45:16;;;;;;;7.40;5.07;;;;;;;3.83;72.28;94344.38;4968834;28;20167;-61
2021/12/11 01:47:46;;;;;;;7.75;4.82;;;;;;;3.81;72.65;94342.81;4968884;28;20077;-63
2021/12/11 01:50:35;;;;;;;6.80;4.30;;;;;;;3.59;72.78;94314.91;4969447;28;20885;-62
2021/12/11 01:53:36;;;;;;;7.57;4.82;;;;;;;3.79;73.03;94335.22;4975924;28;20025;-62
2021/12/11 01:56:15;;;;;;;7.32;4.85;;;;;;;3.54;73.80;94310.03;4969459;28;20039;-64
2021/12/11 01:59:05;;;;;;;6.00;4.53;;;;;;;3.78;73.04;94341.22;4968551;28;20062;-62
2021/12/11 02:02:03;;;;;;;6.85;4.00;;;;;;;3.78;73.24;94337.84;4968837;28;20111;-61
2021/12/11 02:04:30;;;;;;;6.28;4.03;;;;;;;3.74;73.09;94324.41;4950967;28;20496;-63
2021/12/11 02:07:01;;;;;;;6.25;4.10;;;;;;;3.64;73.31;94321.47;4968946;28;20075;-62
2021/12/11 02:09:31;;;;;;;5.20;4.00;;;;;;;3.70;73.10;94332.28;4969488;28;20162;-62
2021/12/11 02:12:11;;;;;;;6.15;4.28;;;;;;;3.62;73.66;94330.09;4968767;28;20298;-63
2021/12/11 02:14:42;;;;;;;10.07;5.28;;;;;;;3.50;74.50;94319.56;4969105;28;20034;-62
2021/12/11 02:17:21;;;;;;;8.25;5.22;;;;;;;3.55;74.39;94342.28;4969356;28;20042;-63
2021/12/11 02:19:49;;;;;;;7.32;4.53;;;;;;;3.34;74.56;94323.72;4968876;28;20035;-63
2021/12/11 02:22:21;;;;;;;7.50;4.80;;;;;;;3.20;75.25;94311.63;4968491;28;20066;-61
2021/12/11 02:24:50;;;;;;;9.00;6.30;;;;;;;3.33;75.44;94332.28;4969262;28;20035;-63
2021/12/11 02:27:33;;;;;;;9.38;5.97;;;;;;;3.39;75.23;94359.19;4968352;28;20039;-65
2021/12/11 02:30:12;;;;;;;7.40;5.82;;;;;;;3.38;75.41;94345.63;4968194;28;20126;-63
2021/12/11 02:32:42;;;;;;;7.38;4.65;;;;;;;3.26;75.01;94326.63;4989136;28;20046;-61
2021/12/11 02:35:17;;;;;;;6.32;4.13;;;;;;;3.49;74.45;94337.47;4990332;28;20050;-63
2021/12/11 02:37:49;;;;;;;9.27;5.90;;;;;;;3.59;73.88;94340.41;4990300;28;20141;-61
2021/12/11 02:40:25;;;;;;;8.98;5.65;;;;;;;3.58;74.68;94328.59;5006125;28;20524;-62
2021/12/11 02:42:56;;;;;;;10.27;6.70;;;;;;;3.70;74.22;94327.19;5008825;28;20025;-63
2021/12/11 02:46:05;;;;;;;8.73;5.63;;;;;;;3.81;73.38;94315.56;5010300;28;20022;-63
2021/12/11 02:48:34;;;;;;;9.15;6.05;;;;;;;3.74;73.51;94311.66;5007138;28;20041;-61
2021/12/11 02:51:11;;;;;;;10.48;6.22;;;;;;;3.72;73.94;94305.78;5005691;28;20033;-62
2021/12/11 02:54:02;;;;;;;8.73;5.90;;;;;;;3.48;73.90;94277.22;5007335;28;20038;-61
2021/12/11 02:56:38;;;;;;;8.80;6.03;;;;;;;3.52;74.26;94291.44;5007291;28;20511;-63
2021/12/11 02:59:15;;;;;;;8.25;6.10;;;;;;;3.64;74.54;94307.88;5006815;28;20281;-61
2021/12/11 03:01:46;;;;;;;9.05;6.80;;;;;;;3.67;74.25;94310.28;5005805;28;20038;-62
2021/12/11 03:04:21;;;;;;;9.65;6.07;;;;;;;3.73;74.35;94311.75;5007326;28;20041;-62
2021/12/11 03:06:49;;;;;;;8.32;5.47;;;;;;;3.60;73.89;94281.72;5006925;28;20061;-61
2021/12/11 03:09:20;;;;;;;10.10;6.10;;;;;;;3.97;73.68;94308.00;4990772;28;20576;-60
2021/12/11 03:11:46;;;;;;;8.52;5.90;;;;;;;3.98;73.48;94321.59;5004877;28;20483;-65
2021/12/11 03:14:14;;;;;;;10.02;6.35;;;;;;;3.96;73.11;94298.69;5006933;28;20029;-62
2021/12/11 03:16:43;;;;;;;8.00;5.75;;;;;;;4.05;73.09;94308.47;5006969;28;20030;-62
2021/12/11 03:19:12;;;;;;;7.68;5.20;;;;;;;4.07;72.82;94295.63;5007067;28;20093;-60
2021/12/11 03:21:39;;;;;;;7.53;4.88;;;;;;;4.22;72.34;94283.84;5004914;28;20034;-60
2021/12/11 03:24:07;;;;;;;7.30;4.93;;;;;;;4.07;72.30;94266.72;5002329;28;20429;-64
2021/12/11 03:26:34;;;;;;;8.85;5.22;;;;;;;4.22;71.97;94288.94;4989820;28;20038;-62
2021/12/11 03:28:59;;;;;;;6.90;5.05;;;;;;;4.20;73.48;94296.66;4989810;28;20068;-62
2021/12/11 03:31:25;;;;;;;7.57;4.47;;;;;;;4.23;72.83;94291.41;4989940;28;20128;-61
2021/12/11 03:33:55;;;;;;;6.13;4.40;;;;;;;4.27;72.67;94270.84;5006503;28;20148;-63
2021/12/11 03:36:24;;;;;;;6.97;4.40;;;;;;;4.38;72.26;94271.13;5009237;28;20029;-61
2021/12/11 03:38:57;;;;;;;7.07;4.75;;;;;;;4.37;72.35;94266.94;5008757;28;20133;-62
2021/12/11 03:41:23;;;;;;;7.85;5.00;;;;;;;4.36;72.42;94263.56;5009341;28;20037;-63
2021/12/11 03:43:50;;;;;;;6.97;4.85;;;;;;;4.38;72.90;94256.63;5008526;28;20026;-65
2021/12/11 03:46:16;;;;;;;9.68;5.53;;;;;;;4.35;73.20;94261.09;5008616;28;20038;-62
2021/12/11 03:48:47;;;;;;;7.43;5.70;;;;;;;4.34;72.68;94249.22;5009209;28;20170;-61
2021/12/11 03:51:19;;;;;;;6.40;4.57;;;;;;;4.44;73.06;94263.16;5009159;28;20105;-64
2021/12/11 03:53:45;;;;;;;7.85;5.10;;;;;;;4.39;72.67;94273.63;5008629;28;20044;-66
2021/12/11 03:56:13;;;;;;;5.97;4.65;;;;;;;4.36;73.12;94270.38;5008962;28;20026;-65
2021/12/11 03:58:40;;;;;;;7.25;4.82;;;;;;;4.50;72.44;94273.06;5008315;28;20053;-62
2021/12/11 04:01:13;;;;;;;6.78;4.78;;;;;;;4.45;72.70;94248.66;5008877;28;20038;-65
2021/12/11 04:03:42;;;;;;;6.72;3.90;;;;;;;4.36;72.86;94249.94;5009542;28;20041;-66
2021/12/11 04:06:11;;;;;;;5.25;4.65;;;;;;;3.97;72.56;94188.13;5008288;28;20034;-64
2021/12/11 04:08:41;;;;;;;4.82;3.80;;;;;;;4.55;72.63;94296.63;5008758;28;20026;-62
2021/12/11 04:11:17;;;;;;;5.63;3.97;;;;;;;4.52;73.23;94295.94;5008473;28;20036;-63
2021/12/11 04:13:44;;;;;;;5.60;4.50;;;;;;;4.55;73.43;94291.50;5008877;28;20115;-61
2021/12/11 04:16:10;;;;;;;5.10;3.42;;;;;;;4.36;73.01;94255.91;5008361;28;20049;-63
2021/12/11 04:18:37;;;;;;;6.25;3.63;;;;;;;4.66;72.68;94295.25;5008251;28;20105;-64
2021/12/11 04:21:03;;;;;;;5.95;3.90;;;;;;;4.70;72.60;94292.44;5008870;28;20513;-64
2021/12/11 04:23:30;;;;;;;6.18;3.70;;;;;;;4.74;72.52;94276.06;5008398;28;20026;-63
2021/12/11 04:25:57;;;;;;;6.50;4.38;;;;;;;4.59;72.11;94229.19;5008353;28;20455;-62
2021/12/11 04:28:24;;;;;;;5.38;3.53;;;;;;;4.71;71.98;94260.09;5008615;28;20088;-62
2021/12/11 04:30:54;;;;;;;6.43;4.10;;;;;;;4.19;72.64;94180.16;5008811;28;20105;-64
2021/12/11 04:33:20;;;;;;;5.25;4.00;;;;;;;4.74;72.79;94255.66;5008667;28;20515;-62
2021/12/11 04:35:46;;;;;;;5.45;4.00;;;;;;;4.88;72.52;94261.75;5007990;28;20069;-64
2021/12/11 04:38:13;;;;;;;5.93;4.00;;;;;;;4.83;73.34;94254.31;5008153;28;20054;-63
2021/12/11 04:40:43;;;;;;;6.10;3.90;;;;;;;4.80;73.16;94249.38;5008791;28;20030;-64
2021/12/11 04:43:15;;;;;;;6.53;4.00;;;;;;;4.81;72.39;94248.47;5008442;28;20030;-62
2021/12/11 04:45:48;;;;;;;5.07;3.78;;;;;;;4.76;73.31;94232.56;5008037;28;20037;-64
2021/12/11 04:48:51;;;;;;;6.88;3.97;;;;;;;4.89;73.48;94263.41;5008151;28;20033;-63
2021/12/11 04:51:28;;;;;;;6.25;4.00;;;;;;;4.91;73.42;94257.31;5008502;28;20030;-65
2021/12/11 04:57:07;;;;;;;6.43;3.85;;;;;;;5.00;73.27;94267.94;5008522;28;20038;-66
2021/12/11 05:07:43;;;;;;;7.32;5.38;;;;;;;4.94;74.15;94256.31;5009409;28;20140;-63
2021/12/11 05:10:22;;;;;;;7.32;4.78;;;;;;;4.88;74.37;94252.34;5008909;28;20428;-60
2021/12/11 05:12:53;;;;;;;6.38;4.47;;;;;;;4.89;75.08;94264.22;5009349;28;20137;-62
2021/12/11 05:15:34;;;;;;;7.00;4.88;;;;;;;4.88;75.48;94260.00;5009654;28;20724;-63
2021/12/11 05:18:01;;;;;;;13.38;9.27;;;;;;;4.73;75.25;94225.06;5009723;28;20153;-62
2021/12/11 05:20:29;;;;;;;7.28;5.32;;;;;;;4.93;75.41;94247.81;5009165;28;20041;-62
2021/12/11 05:22:57;;;;;;;8.30;5.65;;;;;;;4.97;74.89;94262.09;5008796;28;20040;-62
2021/12/11 05:25:24;;;;;;;6.80;5.15;;;;;;;5.06;75.35;94255.66;5009395;28;20029;-65
2021/12/11 05:27:49;;;;;;;9.13;5.28;;;;;;;5.02;75.35;94259.28;5008968;28;20032;-61
2021/12/11 05:30:23;;;;;;;6.68;4.63;;;;;;;5.01;75.33;94260.19;5008589;28;20042;-64
2021/12/11 05:32:49;;;;;;;5.65;4.38;;;;;;;5.02;75.66;94251.63;5009057;28;20030;-64
2021/12/11 05:35:16;;;;;;;6.32;4.68;;;;;;;5.11;76.01;94256.22;5008751;28;20697;-65
2021/12/11 05:37:41;;;;;;;6.32;4.28;;;;;;;5.24;75.07;94251.28;4989902;28;20064;-67
2021/12/11 05:40:09;;;;;;;6.38;4.07;;;;;;;5.21;74.66;94241.22;5008641;28;20501;-62
2021/12/11 05:42:34;;;;;;;6.00;4.28;;;;;;;5.26;75.23;94244.38;5010501;28;20129;-61
2021/12/11 05:45:00;;;;;;;6.70;4.38;;;;;;;5.30;75.01;94253.50;5011635;28;20093;-63
2021/12/11 05:47:26;;;;;;;8.68;5.03;;;;;;;5.39;75.17;94262.41;5010937;28;20038;-64
2021/12/11 05:49:51;;;;;;;7.70;5.00;;;;;;;5.38;75.09;94240.31;5009591;28;20030;-61
2021/12/11 05:52:18;;;;;;;7.78;5.22;;;;;;;5.55;74.36;94251.34;5010916;28;20034;-62
2021/12/11 05:54:46;;;;;;;9.02;5.05;;;;;;;5.15;74.54;94191.28;5011131;28;20068;-65
2021/12/11 05:57:14;;;;;;;9.00;5.10;;;;;;;5.45;75.18;94262.06;5011130;28;20030;-66
2021/12/11 05:59:42;;;;;;;7.13;5.30;;;;;;;5.23;74.90;94226.66;5011076;28;20103;-62
2021/12/11 06:02:10;;;;;;;7.85;5.10;;;;;;;5.57;73.86;94275.91;5010984;28;20424;-63
2021/12/11 06:04:39;;;;;;;8.77;4.88;;;;;;;5.52;73.43;94247.22;5011233;28;20044;-63
2021/12/11 06:07:08;;;;;;;5.95;4.35;;;;;;;5.26;73.28;94194.97;5010797;28;20053;-63
2021/12/11 06:09:35;;;;;;;8.23;5.55;;;;;;;5.29;73.28;94217.81;5010873;28;20030;-63
2021/12/11 06:12:07;;;;;;;6.43;4.50;;;;;;;5.61;73.65;94266.34;5010045;28;20117;-64
2021/12/11 06:14:35;;;;;;;6.35;4.85;;;;;;;5.53;73.85;94256.53;5010816;28;20498;-60
2021/12/11 06:17:05;;;;;;;6.32;4.45;;;;;;;5.65;73.80;94250.72;5011077;28;20422;-62
2021/12/11 06:19:31;;;;;;;8.00;4.53;;;;;;;5.76;72.90;94251.88;5011025;28;20030;-63
2021/12/11 06:21:58;;;;;;;7.47;4.57;;;;;;;5.85;72.90;94269.25;5010673;28;20400;-61
2021/12/11 06:24:24;;;;;;;5.85;4.38;;;;;;;5.89;72.69;94266.44;5010497;28;20061;-63
2021/12/11 06:26:50;;;;;;;8.50;5.68;;;;;;;5.78;73.07;94267.97;5010491;28;20034;-63
2021/12/11 06:29:16;;;;;;;5.93;4.20;;;;;;;5.61;73.26;94256.94;5010869;28;20033;-63
2021/12/11 06:31:45;;;;;;;8.55;5.30;;;;;;;5.65;73.42;94276.31;5010441;28;20041;-61
2021/12/11 06:34:11;;;;;;;7.95;5.03;;;;;;;5.38;73.30;94219.88;5010066;28;20030;-61
2021/12/11 06:36:37;;;;;;;6.85;5.38;;;;;;;5.89;72.44;94258.75;5010255;28;20084;-62
2021/12/11 06:39:11;;;;;;;8.63;5.38;;;;;;;6.12;72.01;94260.97;5010150;28;20053;-62
2021/12/11 06:41:40;;;;;;;6.78;5.13;;;;;;;6.15;71.67;94273.56;5009482;28;20026;-62
2021/12/11 06:44:08;;;;;;;12.48;7.85;;;;;;;5.95;72.47;94262.72;5010121;28;20033;-64
2021/12/11 06:46:34;;;;;;;12.77;8.40;;;;;;;5.79;72.63;94256.81;5008752;28;20556;-61
2021/12/11 06:49:01;;;;;;;10.50;7.57;;;;;;;5.97;72.63;94262.66;5009882;28;20037;-62
2021/12/11 06:51:27;;;;;;;10.43;7.18;;;;;;;6.12;72.56;94277.16;5009074;28;20046;-61
2021/12/11 06:53:59;;;;;;;12.95;8.70;;;;;;;6.26;71.21;94266.09;5006987;28;20062;-61
2021/12/11 06:56:26;;;;;;;14.88;8.73;;;;;;;6.34;70.38;94260.53;5006488;28;20116;-63
2021/12/11 06:58:54;;;;;;;12.10;9.18;;;;;;;6.15;70.10;94218.09;5009326;28;20509;-63
2021/12/11 07:01:22;;;;;;;18.67;9.82;;;;;;;6.37;70.37;94252.69;5009955;28;20049;-63
2021/12/11 07:03:48;;;;;;;16.05;11.95;;;;;;;6.30;71.44;94265.00;5009974;28;20018;-63
2021/12/11 07:06:15;;;;;;;16.13;11.57;;;;;;;6.27;71.56;94242.16;5009956;28;20033;-63
2021/12/11 07:08:41;;;;;;;17.65;12.70;;;;;;;6.40;71.20;94252.50;5009614;28;20041;-62
2021/12/11 07:11:09;;;;;;;16.15;12.18;;;;;;;6.38;71.39;94252.59;5009243;28;20037;-64
2021/12/11 07:13:35;;;;;;;17.98;12.57;;;;;;;6.26;71.93;94253.28;5006963;28;20084;-54
2021/12/11 07:16:01;;;;;;;17.25;13.60;;;;;;;6.12;72.38;94250.72;5006504;28;20105;-60
2021/12/11 07:18:31;;;;;;;16.45;14.25;;;;;;;5.97;72.42;94231.94;5006111;28;20022;-60
2021/12/11 07:20:57;;;;;;;17.33;13.23;;;;;;;5.85;72.25;94229.16;5006261;28;20030;-60
2021/12/11 07:23:23;;;;;;;18.85;14.65;;;;;;;5.84;72.27;94201.09;5006037;28;20500;-61
2021/12/11 07:26:00;;;;;;;22.45;15.15;;;;;;;6.33;71.81;94239.22;5006331;28;20026;-60
2021/12/11 07:28:26;;;;;;;22.67;14.65;;;;;;;6.42;71.38;94238.69;5005215;28;20339;-57
2021/12/11 07:30:55;;;;;;;21.27;15.45;;;;;;;6.63;70.71;94213.53;5002810;28;20084;-56
2021/12/11 07:33:20;;;;;;;22.95;15.80;;;;;;;6.77;69.32;94217.81;5005853;28;20018;-54
2021/12/11 07:35:48;;;;;;;22.63;14.73;;;;;;;6.84;69.33;94236.22;5005167;28;20026;-56
2021/12/11 07:38:15;;;;;;;23.38;15.30;;;;;;;6.63;69.24;94200.72;5004480;28;20220;-60
2021/12/11 07:40:46;;;;;;;22.23;15.43;;;;;;;6.97;68.47;94229.41;5005459;28;20095;-63
2021/12/11 07:43:12;;;;;;;19.15;14.20;;;;;;;6.91;67.77;94187.97;5004021;28;20030;-65
2021/12/11 07:45:38;;;;;;;22.10;16.02;;;;;;;7.34;67.34;94237.38;5005608;28;20057;-65
2021/12/11 07:48:06;;;;;;;21.58;15.82;;;;;;;7.41;67.16;94214.75;5005633;28;20491;-65
2021/12/11 07:50:32;;;;;;;19.17;14.30;;;;;;;7.42;66.89;94206.13;5002359;28;20033;-66
2021/12/11 07:52:58;;;;;;;16.70;13.73;;;;;;;7.79;66.34;94232.00;5004729;28;20026;-65
2021/12/11 07:55:24;;;;;;;17.40;13.05;;;;;;;7.83;65.00;94218.03;5005550;28;20037;-67
2021/12/11 07:57:50;;;;;;;18.30;14.05;;;;;;;7.79;64.44;94206.31;5005185;28;20026;-66
2021/12/11 08:00:19;;;;;;;27.88;18.95;;;;;;;7.91;63.78;94228.63;5005864;28;20056;-65
2021/12/11 08:02:45;;;;;;;19.85;15.32;;;;;;;8.04;62.77;94225.25;5004989;28;20881;-67
2021/12/11 08:05:11;;;;;;;23.90;16.30;;;;;;;7.73;62.53;94175.91;5006045;28;20034;-66
2021/12/11 08:07:36;;;;;;;23.73;17.10;;;;;;;7.97;62.91;94193.19;5004813;28;20058;-64
2021/12/11 08:10:05;;;;;;;23.13;18.05;;;;;;;8.09;63.26;94200.09;5005572;28;20030;-66
2021/12/11 08:12:31;;;;;;;27.88;19.88;;;;;;;8.24;63.87;94222.19;5004299;28;20033;-64
2021/12/11 08:14:56;;;;;;;25.92;21.48;;;;;;;8.20;63.64;94225.03;5000861;28;20113;-64
2021/12/11 08:17:22;;;;;;;27.02;20.02;;;;;;;8.29;63.36;94209.84;5005635;28;20050;-66
2021/12/11 08:19:48;;;;;;;25.13;19.40;;;;;;;8.82;61.53;94206.34;5005943;28;20447;-65
2021/12/11 08:22:13;;;;;;;23.50;18.52;;;;;;;10.04;58.43;94213.97;5004791;28;20048;-64
2021/12/11 08:24:40;;;;;;;25.35;19.40;;;;;;;12.83;51.66;94204.13;4999774;28;20623;-64
2021/12/11 08:27:11;;;;;;;21.83;16.65;;;;;;;14.69;45.06;94197.28;5005542;28;20041;-65
2021/12/11 08:29:38;;;;;;;18.60;14.35;;;;;;;13.41;46.36;94198.31;5005545;28;20084;-65
2021/12/11 08:32:05;;;;;;;16.13;13.88;;;;;;;12.62;48.25;94204.16;5005396;28;20477;-65
2021/12/11 08:34:30;;;;;;;16.73;10.63;;;;;;;12.35;47.56;94215.88;5004100;28;20116;-68
2021/12/11 08:36:58;;;;;;;16.80;10.65;;;;;;;12.80;46.71;94206.97;5004880;28;20473;-65
2021/12/11 08:39:26;;;;;;;16.17;10.50;;;;;;;12.90;46.15;94194.06;5006631;28;20144;-65
2021/12/11 08:41:53;;;;;;;11.65;8.88;;;;;;;13.34;45.28;94205.00;5009077;28;20026;-66
2021/12/11 08:44:20;;;;;;;10.80;8.77;;;;;;;13.28;45.33;94198.56;5008072;28;20030;-65
2021/12/11 08:46:55;;;;;;;12.70;9.20;;;;;;;13.12;45.35;94195.63;5008648;28;20042;-65
2021/12/11 08:49:28;;;;;;;12.48;8.30;;;;;;;12.86;46.01;94185.75;5009097;28;20064;-63
2021/12/11 08:51:59;;;;;;;13.77;9.15;;;;;;;12.70;45.95;94173.31;5008900;28;20049;-66
2021/12/11 08:54:28;;;;;;;13.93;8.10;;;;;;;12.78;45.47;94194.16;5009536;28;20045;-66
2021/12/11 08:56:57;;;;;;;11.45;7.53;;;;;;;12.60;46.02;94175.03;5008946;28;20037;-65
2021/12/11 08:59:25;;;;;;;10.32;7.78;;;;;;;13.34;45.10;94184.28;5008251;28;20113;-66
2021/12/11 09:01:50;;;;;;;11.85;7.90;;;;;;;14.82;41.23;94176.22;5008679;28;20030;-65
2021/12/11 09:04:21;;;;;;;8.13;5.35;;;;;;;15.12;40.47;94151.75;5008445;28;20037;-65
2021/12/11 09:06:54;;;;;;;11.68;7.03;;;;;;;16.05;37.48;94163.69;5006944;28;20033;-67
2021/12/11 09:09:45;;;;;;;9.40;6.80;;;;;;;14.61;40.80;94177.25;5008300;28;20096;-66
2021/12/11 09:12:13;;;;;;;10.82;7.78;;;;;;;13.72;42.06;94175.72;5020866;28;20037;-65
2021/12/11 09:14:52;;;;;;;10.38;6.93;;;;;;;12.55;44.14;94167.66;5007698;28;20074;-67
2021/12/11 09:17:28;;;;;;;13.45;7.72;;;;;;;11.37;47.76;94162.63;5005372;28;20030;-67
2021/12/11 09:20:09;;;;;;;11.20;8.20;;;;;;;10.83;49.60;94149.59;5021482;28;20038;-67
2021/12/11 09:22:48;;;;;;;13.43;8.57;;;;;;;10.83;49.65;94162.50;5005188;28;20471;-68
2021/12/11 09:25:26;;;;;;;12.00;8.73;;;;;;;10.87;50.31;94160.53;5007996;28;20489;-69
2021/12/11 09:28:29;;;;;;;9.40;6.40;;;;;;;10.79;50.55;94155.97;5004840;28;20153;-68
2021/12/11 09:31:03;;;;;;;7.57;5.95;;;;;;;11.05;50.02;94147.94;4958210;28;20043;-69
2021/12/11 09:33:35;;;;;;;8.80;6.10;;;;;;;11.04;49.77;94141.97;4966750;28;20033;-67
2021/12/11 09:36:08;;;;;;;8.80;6.00;;;;;;;11.11;49.60;94121.66;4965083;28;20145;-69
2021/12/11 09:38:41;;;;;;;10.18;7.50;;;;;;;11.04;49.54;94141.16;4968045;28;20533;-70
2021/12/11 09:41:24;;;;;;;13.57;7.65;;;;;;;11.00;48.82;94142.31;4969445;28;20122;-68
2021/12/11 09:43:55;;;;;;;10.70;6.43;;;;;;;10.59;49.53;94053.53;4967901;28;20094;-68
2021/12/11 09:46:33;;;;;;;8.57;5.65;;;;;;;11.30;48.33;94097.78;4968716;28;20125;-68
2021/12/11 09:49:00;;;;;;;8.30;6.10;;;;;;;11.87;47.58;94131.91;4968365;28;20070;-68
2021/12/11 09:51:33;;;;;;;9.43;5.32;;;;;;;11.69;47.07;94126.47;4952486;28;20299;-68
2021/12/11 09:54:03;;;;;;;7.80;5.70;;;;;;;11.33;47.62;94101.88;4969169;28;20462;-68
2021/12/11 09:56:39;;;;;;;7.55;5.75;;;;;;;11.13;48.72;94126.69;4968602;28;20514;-69
2021/12/11 09:59:08;;;;;;;10.82;6.35;;;;;;;11.16;48.73;94116.13;4968307;28;20042;-68
2021/12/11 10:01:39;;;;;;;7.53;5.72;;;;;;;10.92;49.07;94093.09;4969019;28;20027;-67
2021/12/11 10:04:16;;;;;;;9.27;6.65;;;;;;;10.92;49.47;94091.34;4968828;28;20063;-68
2021/12/11 10:07:12;;;;;;;7.97;5.90;;;;;;;11.02;48.91;94114.66;4972084;28;20153;-68
2021/12/11 10:09:47;;;;;;;10.13;6.50;;;;;;;10.72;48.69;94079.19;5010344;28;20038;-69
2021/12/11 10:12:21;;;;;;;14.23;8.82;;;;;;;10.71;49.69;94103.31;5010711;28;20089;-67
2021/12/11 10:14:58;;;;;;;13.40;9.07;;;;;;;10.53;50.05;94098.69;5009782;28;20105;-69
2021/12/11 10:17:36;;;;;;;17.08;10.48;;;;;;;10.40;50.84;94083.34;5010162;28;20040;-68
2021/12/11 10:20:07;;;;;;;12.32;8.48;;;;;;;10.61;50.92;94110.97;5010143;28;20033;-69
2021/12/11 10:22:35;;;;;;;12.40;7.82;;;;;;;10.92;50.28;94113.72;5010191;28;20030;-69
2021/12/11 10:25:03;;;;;;;11.38;8.13;;;;;;;10.93;49.29;94081.84;5008916;28;20025;-69
2021/12/11 10:27:31;;;;;;;10.75;6.80;;;;;;;11.14;49.85;94103.34;5009896;28;20034;-67
2021/12/11 10:29:59;;;;;;;12.10;8.60;;;;;;;11.14;50.05;94098.19;5025650;28;20029;-69
2021/12/11 10:32:29;;;;;;;13.68;9.32;;;;;;;11.08;49.87;94093.50;5009765;28;20115;-70
2021/12/11 10:34:58;;;;;;;11.52;8.50;;;;;;;10.37;49.99;94003.69;5009378;28;20073;-68
2021/12/11 10:37:33;;;;;;;11.93;8.70;;;;;;;10.82;50.09;94070.63;5009371;28;20044;-66
2021/12/11 10:40:05;;;;;;;17.88;11.25;;;;;;;10.82;50.54;94083.50;5010059;28;20041;-71
2021/12/11 10:42:31;;;;;;;18.83;11.20;;;;;;;10.27;51.25;94013.84;5010020;28;20076;-69
2021/12/11 10:44:58;;;;;;;21.75;12.57;;;;;;;10.16;51.50;94008.72;5007815;28;20034;-68
2021/12/11 10:47:30;;;;;;;18.77;13.23;;;;;;;10.45;52.02;94055.44;5008513;28;20069;-67
2021/12/11 10:49:56;;;;;;;17.83;11.20;;;;;;;10.50;52.29;94062.03;5009555;28;20471;-69
2021/12/11 10:52:27;;;;;;;17.40;12.02;;;;;;;10.80;51.49;94075.06;5009098;28;20053;-69
2021/12/11 10:54:55;;;;;;;22.55;14.43;;;;;;;10.83;51.53;94064.50;5004416;28;20121;-67
2021/12/11 10:57:22;;;;;;;17.55;12.00;;;;;;;10.70;51.48;94037.25;5006349;28;20034;-67
2021/12/11 10:59:52;;;;;;;19.60;12.40;;;;;;;10.67;51.46;94025.41;5002486;28;20536;-68
2021/12/11 11:02:28;;;;;;;17.90;12.73;;;;;;;10.89;50.75;94047.75;5005597;28;20034;-67
2021/12/11 11:04:58;;;;;;;18.92;12.88;;;;;;;11.17;50.42;94056.66;5005304;28;20033;-69
2021/12/11 11:07:25;;;;;;;20.15;13.30;;;;;;;10.97;50.27;94045.38;5006087;28;20040;-68
2021/12/11 11:09:52;;;;;;;20.80;14.95;;;;;;;10.96;50.84;94043.72;5005356;28;20121;-69
2021/12/11 11:12:21;;;;;;;18.35;13.65;;;;;;;10.98;51.42;94053.91;5006049;28;20161;-69
2021/12/11 11:14:49;;;;;;;21.33;15.63;;;;;;;10.83;51.90;94050.81;5006938;28;20032;-70
2021/12/11 11:17:17;;;;;;;21.85;13.63;;;;;;;10.82;52.16;94051.72;5006749;28;20022;-69
2021/12/11 11:19:46;;;;;;;19.08;13.32;;;;;;;10.74;51.95;94043.78;5007187;28;20054;-68
2021/12/11 11:22:19;;;;;;;18.67;14.18;;;;;;;10.76;51.80;94040.16;5008949;28;20030;-71
2021/12/11 11:24:49;;;;;;;18.25;13.20;;;;;;;10.84;52.62;94031.81;5008099;28;20044;-69
2021/12/11 11:27:17;;;;;;;18.23;13.05;;;;;;;11.13;51.66;94038.97;5008859;28;20026;-70
2021/12/11 11:29:44;;;;;;;15.60;11.77;;;;;;;11.32;51.52;94031.38;5007558;28;20409;-69
2021/12/11 11:32:14;;;;;;;13.77;11.07;;;;;;;11.36;51.16;94001.78;5008108;28;20025;-68
2021/12/11 11:34:40;;;;;;;13.57;9.23;;;;;;;11.62;51.13;94013.47;5007232;28;20104;-70
2021/12/11 11:37:08;;;;;;;13.95;9.77;;;;;;;11.03;51.05;93925.38;5008225;28;20125;-67
2021/12/11 11:39:34;;;;;;;14.07;9.73;;;;;;;11.64;50.86;94001.25;5008374;28;20029;-70
2021/12/11 11:42:03;;;;;;;16.75;8.93;;;;;;;11.30;51.65;93986.81;5008370;28;20721;-68
2021/12/11 11:44:29;;;;;;;15.00;9.98;;;;;;;11.40;51.69;93998.00;5008043;28;20045;-62
2021/12/11 11:46:59;;;;;;;11.18;7.60;;;;;;;11.04;52.41;93947.66;5008102;28;20095;-61
2021/12/11 11:49:26;;;;;;;10.48;6.57;;;;;;;11.11;53.08;93989.25;5006990;28;20030;-63
2021/12/11 11:52:08;;;;;;;12.35;7.13;;;;;;;10.78;54.20;93968.66;5008524;28;20045;-62
2021/12/11 11:54:37;;;;;;;11.73;7.15;;;;;;;11.01;54.17;94012.41;5008286;28;20404;-64
2021/12/11 11:57:33;;;;;;;11.27;7.18;;;;;;;10.98;54.66;94008.28;5008171;28;20038;-61
2021/12/11 12:00:01;;;;;;;11.35;6.95;;;;;;;10.95;54.77;93984.50;4965963;28;20049;-61